Time;durP1;ratioP1;P1;durP2;ratioP2;P2;SDS_P1;SDS_P2;PMS_P1;PMS_P2;Temp;Humidity;BMP_temperature;BMP_pressure;BME280_temperature;BME280_humidity;BME280_pressure;Samples;Min_cycle;Max_cycle;Signal;HPM_P1;HPM_P2
2021/05/24 00:00:52;;;;;;;;;;;28.50;95.40;;;;;;1706813;83;20293;-89
2021/05/24 00:03:26;;;;;;;;;;;28.50;95.20;;;;;;1708017;83;20319;-88
2021/05/24 00:05:55;;;;;;;;;;;28.50;95.90;;;;;;1707785;83;20277;-89
2021/05/24 00:08:26;;;;;;;;;;;28.50;95.20;;;;;;1712318;83;20728;-88
2021/05/24 00:11:02;;;;;;;;;;;28.50;95.70;;;;;;1707725;83;20232;-87
2021/05/24 00:13:51;;;;;;;;;;;28.40;95.50;;;;;;1689701;83;20292;-89
2021/05/24 00:16:09;;;;;;;;;;;28.40;95.80;;;;;;1832244;77;20248;-90
2021/05/24 00:18:39;;;;;;;;;;;28.50;95.00;;;;;;1853758;77;20140;-87
2021/05/24 00:21:09;;;;;;;;;;;28.50;95.00;;;;;;1852420;77;20203;-89
2021/05/24 00:23:39;;;;;;;;;;;28.50;93.90;;;;;;1853197;77;20197;-88
2021/05/24 00:26:10;;;;;;;;;;;28.50;95.90;;;;;;1848083;77;20182;-90
2021/05/24 00:28:40;;;;;;;;;;;28.40;95.50;;;;;;1860840;77;20203;-88
2021/05/24 00:31:10;;;;;;;;;;;28.40;95.70;;;;;;1856682;77;20199;-88
2021/05/24 00:33:40;;;;;;;;;;;28.40;95.10;;;;;;1813981;78;20233;-88
2021/05/24 00:36:10;;;;;;;;;;;28.40;95.90;;;;;;1787618;79;20190;-89
2021/05/24 00:38:40;;;;;;;;;;;28.40;94.90;;;;;;1749218;80;20222;-89
2021/05/24 00:41:10;;;;;;;;;;;28.40;96.20;;;;;;1789386;80;20228;-88
2021/05/24 00:43:40;;;;;;;;;;;28.40;96.40;;;;;;1743343;82;20214;-90
2021/05/24 00:46:10;;;;;;;;;;;28.30;96.70;;;;;;1786420;80;20218;-90
2021/05/24 00:48:40;;;;;;;;;;;28.30;96.90;;;;;;1787199;80;20248;-90
2021/05/24 00:51:10;;;;;;;;;;;28.30;97.20;;;;;;1778474;80;20211;-90
2021/05/24 00:53:40;;;;;;;;;;;28.20;97.30;;;;;;1783470;79;20207;-90
2021/05/24 00:56:10;;;;;;;;;;;28.20;97.30;;;;;;1786606;80;20273;-90
2021/05/24 00:58:40;;;;;;;;;;;28.20;97.70;;;;;;1779348;80;20266;-90
2021/05/24 01:01:12;;;;;;;;;;;28.20;97.90;;;;;;1749125;80;20171;-90
2021/05/24 01:03:41;;;;;;;;;;;28.20;97.60;;;;;;1790794;78;20169;-91
2021/05/24 01:06:10;;;;;;;;;;;28.20;98.00;;;;;;1816334;78;20217;-91
2021/05/24 01:08:41;;;;;;;;;;;28.20;98.10;;;;;;1770069;79;20192;-90
2021/05/24 01:11:10;;;;;;;;;;;28.20;97.80;;;;;;1783995;79;20200;-91
2021/05/24 01:13:40;;;;;;;;;;;28.20;98.20;;;;;;1774045;80;20219;-90
2021/05/24 01:16:10;;;;;;;;;;;28.20;98.10;;;;;;1813478;78;21362;-90
2021/05/24 01:18:40;;;;;;;;;;;28.20;98.10;;;;;;1817045;78;20488;-90
2021/05/24 01:21:13;;;;;;;;;;;28.20;98.10;;;;;;1817215;78;20175;-90
2021/05/24 01:23:44;;;;;;;;;;;28.20;98.20;;;;;;1811458;78;20211;-92
2021/05/24 01:26:14;;;;;;;;;;;28.30;98.30;;;;;;1820473;78;20191;-91
2021/05/24 01:28:44;;;;;;;;;;;28.30;97.90;;;;;;1819807;78;20590;-92
2021/05/24 01:31:14;;;;;;;;;;;28.40;98.10;;;;;;1809797;78;20294;-90
2021/05/24 01:33:44;;;;;;;;;;;28.40;97.70;;;;;;1819195;78;20237;-91
2021/05/24 01:36:14;;;;;;;;;;;28.50;97.40;;;;;;1737549;82;20222;-90
2021/05/24 01:38:45;;;;;;;;;;;28.50;97.10;;;;;;1784027;80;20255;-88
2021/05/24 01:41:15;;;;;;;;;;;28.60;97.40;;;;;;1742174;82;20533;-89
2021/05/24 01:43:45;;;;;;;;;;;28.70;97.20;;;;;;1785005;80;20183;-89
2021/05/24 01:46:15;;;;;;;;;;;28.80;96.90;;;;;;1747497;82;20241;-88
2021/05/24 01:48:49;;;;;;;;;;;28.80;96.80;;;;;;1790126;78;20218;-87
2021/05/24 01:51:42;;;;;;;;;;;28.90;96.60;;;;;;1785407;80;20218;-89
2021/05/24 01:54:28;;;;;;;;;;;29.00;95.40;;;;;;1782330;80;20234;-89
2021/05/24 01:56:58;;;;;;;;;;;29.10;94.90;;;;;;1789450;80;20228;-87
2021/05/24 01:59:27;;;;;;;;;;;29.30;94.70;;;;;;1782531;79;20238;-88
2021/05/24 02:01:57;;;;;;;;;;;29.40;94.70;;;;;;1782951;80;20233;-86
2021/05/24 02:04:27;;;;;;;;;;;29.60;94.30;;;;;;1784739;80;20239;-88
2021/05/24 02:06:58;;;;;;;;;;;29.80;94.10;;;;;;1782458;79;20228;-88
2021/05/24 02:09:28;;;;;;;;;;;30.00;94.20;;;;;;1782596;80;20242;-88
2021/05/24 02:11:58;;;;;;;;;;;30.20;93.30;;;;;;1787374;79;20236;-86
2021/05/24 02:14:27;;;;;;;;;;;30.40;93.30;;;;;;1787494;80;20183;-87
2021/05/24 02:16:57;;;;;;;;;;;30.50;91.30;;;;;;1787330;79;20254;-87
2021/05/24 02:19:30;;;;;;;;;;;30.50;91.00;;;;;;1779944;80;20179;-87
2021/05/24 02:22:02;;;;;;;;;;;30.60;90.90;;;;;;1783243;78;20175;-87
2021/05/24 02:24:33;;;;;;;;;;;30.70;91.70;;;;;;1770569;81;20206;-89
2021/05/24 02:27:03;;;;;;;;;;;30.70;91.90;;;;;;1791887;80;20579;-89
2021/05/24 02:29:37;;;;;;;;;;;30.90;91.60;;;;;;1799915;79;20214;-88
2021/05/24 02:32:07;;;;;;;;;;;31.00;91.20;;;;;;1800116;80;20208;-86
2021/05/24 02:34:37;;;;;;;;;;;31.30;91.50;;;;;;1799987;80;20233;-86
2021/05/24 02:37:07;;;;;;;;;;;31.50;91.70;;;;;;1800547;80;20472;-84
2021/05/24 02:39:37;;;;;;;;;;;31.60;88.80;;;;;;1799376;80;20249;-86
2021/05/24 02:42:07;;;;;;;;;;;31.70;89.70;;;;;;1800156;80;20173;-85
2021/05/24 02:44:36;;;;;;;;;;;31.70;89.60;;;;;;1800434;80;20196;-86
2021/05/24 02:47:07;;;;;;;;;;;31.80;89.70;;;;;;1800649;80;20238;-86
2021/05/24 02:49:37;;;;;;;;;;;31.80;88.40;;;;;;1800553;80;20181;-85
2021/05/24 02:52:07;;;;;;;;;;;32.00;88.10;;;;;;1800700;80;20161;-86
2021/05/24 02:54:37;;;;;;;;;;;32.00;87.00;;;;;;1800742;80;20169;-87
2021/05/24 02:57:07;;;;;;;;;;;32.00;88.30;;;;;;1801798;80;20512;-87
2021/05/24 02:59:37;;;;;;;;;;;32.10;87.20;;;;;;1803820;80;20138;-87
2021/05/24 03:02:11;;;;;;;;;;;32.10;86.70;;;;;;1803270;80;20216;-87
2021/05/24 03:04:38;;;;;;;;;;;32.10;86.60;;;;;;1802489;80;20209;-86
2021/05/24 03:07:09;;;;;;;;;;;32.00;86.70;;;;;;1803717;78;20160;-87
2021/05/24 03:13:12;;;;;;;;;;;;;;;;;;;;;
2021/05/24 03:22:43;;;;;;;;;;;32.50;85.90;;;;;;1730138;81;20144;-85
2021/05/24 03:25:15;;;;;;;;;;;32.40;84.00;;;;;;1731241;81;20256;-86
2021/05/24 03:27:45;;;;;;;;;;;32.40;86.10;;;;;;1780623;78;20248;-85
2021/05/24 03:30:15;;;;;;;;;;;32.30;85.10;;;;;;1783009;80;20212;-85
2021/05/24 03:32:46;;;;;;;;;;;32.40;85.40;;;;;;1752351;80;20503;-86
2021/05/24 03:35:15;;;;;;;;;;;32.40;85.10;;;;;;1789945;80;20210;-86
2021/05/24 03:37:45;;;;;;;;;;;32.50;84.80;;;;;;1746333;80;20214;-85
2021/05/24 03:40:16;;;;;;;;;;;32.60;84.90;;;;;;1789728;80;20440;-86
2021/05/24 03:42:47;;;;;;;;;;;32.60;84.30;;;;;;1749692;80;20143;-87
2021/05/24 03:45:18;;;;;;;;;;;32.70;82.20;;;;;;1788053;79;20163;-87
2021/05/24 03:47:50;;;;;;;;;;;32.80;81.40;;;;;;1747569;80;20234;-86
2021/05/24 03:50:20;;;;;;;;;;;32.70;83.10;;;;;;1788907;80;20211;-85
2021/05/24 03:52:51;;;;;;;;;;;32.60;83.90;;;;;;1780721;80;20230;-86
2021/05/24 03:55:21;;;;;;;;;;;32.50;83.40;;;;;;1777265;80;20270;-86
2021/05/24 03:57:53;;;;;;;;;;;32.50;84.80;;;;;;1773519;80;20206;-87
2021/05/24 04:00:29;;;;;;;;;;;32.50;84.40;;;;;;1790030;78;20169;-88
2021/05/24 04:02:56;;;;;;;;;;;32.50;83.90;;;;;;1793582;78;20151;-87
2021/05/24 04:05:31;;;;;;;;;;;32.40;84.20;;;;;;1753621;80;20247;-87
2021/05/24 04:07:58;;;;;;;;;;;32.40;84.20;;;;;;1788100;79;20516;-86
2021/05/24 04:10:31;;;;;;;;;;;32.40;85.70;;;;;;1748101;80;20306;-87
2021/05/24 04:12:59;;;;;;;;;;;32.40;85.30;;;;;;1790115;79;20177;-85
2021/05/24 04:15:30;;;;;;;;;;;32.40;84.90;;;;;;1746375;80;20182;-85
2021/05/24 04:18:02;;;;;;;;;;;32.50;84.80;;;;;;1785032;79;20260;-85
2021/05/24 04:20:31;;;;;;;;;;;32.60;84.60;;;;;;1748369;80;20284;-85
2021/05/24 04:23:01;;;;;;;;;;;32.80;84.40;;;;;;1788010;80;20180;-84
2021/05/24 04:25:31;;;;;;;;;;;32.90;84.60;;;;;;1812426;77;20178;-89
2021/05/24 04:28:01;;;;;;;;;;;33.10;82.00;;;;;;1773323;80;20188;-87
2021/05/24 04:30:31;;;;;;;;;;;33.20;81.30;;;;;;1785671;80;20246;-87
2021/05/24 04:33:02;;;;;;;;;;;33.30;81.10;;;;;;1789085;79;20736;-87
2021/05/24 04:35:32;;;;;;;;;;;33.50;79.50;;;;;;1787426;79;20204;-86
2021/05/24 04:38:01;;;;;;;;;;;33.70;80.00;;;;;;1782723;78;20132;-87
2021/05/24 04:40:31;;;;;;;;;;;33.80;80.20;;;;;;1785283;79;20217;-87
2021/05/24 04:43:02;;;;;;;;;;;34.00;77.00;;;;;;1786978;79;20228;-85
2021/05/24 04:45:32;;;;;;;;;;;34.10;77.40;;;;;;1783045;80;20189;-90
2021/05/24 04:48:02;;;;;;;;;;;34.20;75.80;;;;;;1786903;80;20275;-90
2021/05/24 04:50:32;;;;;;;;;;;34.20;76.50;;;;;;1782518;80;20200;-91
2021/05/24 04:53:03;;;;;;;;;;;34.20;76.30;;;;;;1789223;80;20227;-90
2021/05/24 04:55:36;;;;;;;;;;;34.20;77.00;;;;;;1788308;80;20184;-91
2021/05/24 04:58:09;;;;;;;;;;;34.30;75.80;;;;;;1778694;80;20209;-91
2021/05/24 05:00:39;;;;;;;;;;;34.10;75.10;;;;;;1815308;78;20224;-91
2021/05/24 05:03:11;;;;;;;;;;;34.00;76.60;;;;;;1814347;78;20167;-90
2021/05/24 05:05:43;;;;;;;;;;;34.00;76.40;;;;;;1816988;78;20543;-91
2021/05/24 05:08:12;;;;;;;;;;;34.10;75.20;;;;;;1798267;79;20202;-92
2021/05/24 05:10:42;;;;;;;;;;;34.20;74.50;;;;;;1801560;78;20206;-89
2021/05/24 05:13:12;;;;;;;;;;;34.20;74.50;;;;;;1800069;79;20310;-90
2021/05/24 05:15:42;;;;;;;;;;;34.20;74.90;;;;;;1803135;79;20285;-85
2021/05/24 05:18:12;;;;;;;;;;;34.20;74.80;;;;;;1811203;78;20610;-85
2021/05/24 05:20:41;;;;;;;;;;;34.20;74.10;;;;;;1777405;80;20234;-86
2021/05/24 05:23:11;;;;;;;;;;;34.10;74.30;;;;;;1813694;78;20167;-86
2021/05/24 05:25:41;;;;;;;;;;;34.20;74.30;;;;;;1816257;78;20188;-87
2021/05/24 05:28:11;;;;;;;;;;;34.30;75.10;;;;;;1809156;78;20237;-86
2021/05/24 05:31:00;;;;;;;;;;;34.40;74.90;;;;;;1808536;78;20138;-85
2021/05/24 05:33:31;;;;;;;;;;;34.50;73.30;;;;;;1803816;78;20129;-85
2021/05/24 05:35:59;;;;;;;;;;;34.50;73.00;;;;;;1788845;78;20266;-86
2021/05/24 05:38:58;;;;;;;;;;;34.50;73.20;;;;;;1810420;78;20201;-86
2021/05/24 05:41:46;;;;;;;;;;;34.50;72.30;;;;;;1795282;78;20245;-86
2021/05/24 05:44:16;;;;;;;;;;;34.60;71.90;;;;;;1807142;78;20226;-86
2021/05/24 05:46:45;;;;;;;;;;;34.70;74.00;;;;;;1810277;78;20229;-86
2021/05/24 05:49:24;;;;;;;;;;;34.70;73.20;;;;;;1808615;78;20210;-85
2021/05/24 05:51:54;;;;;;;;;;;34.70;73.20;;;;;;1805809;78;20754;-86
2021/05/24 05:54:24;;;;;;;;;;;34.70;70.60;;;;;;1810841;78;20226;-86
2021/05/24 05:56:54;;;;;;;;;;;34.70;70.60;;;;;;1815407;78;20756;-86
2021/05/24 05:59:23;;;;;;;;;;;34.70;71.50;;;;;;1808026;78;20134;-86
2021/05/24 06:01:53;;;;;;;;;;;34.80;72.50;;;;;;1812814;78;20225;-86
2021/05/24 06:04:23;;;;;;;;;;;34.90;71.70;;;;;;1812382;78;20294;-86
2021/05/24 06:06:53;;;;;;;;;;;35.00;72.40;;;;;;1809324;77;20217;-87
2021/05/24 06:09:23;;;;;;;;;;;35.00;69.80;;;;;;1771852;80;20186;-85
2021/05/24 06:11:53;;;;;;;;;;;35.10;72.60;;;;;;1784500;79;20205;-84
2021/05/24 06:14:23;;;;;;;;;;;35.20;71.80;;;;;;1779516;79;20175;-85
2021/05/24 06:16:53;;;;;;;;;;;35.20;69.60;;;;;;1782219;80;20185;-85
2021/05/24 06:19:27;;;;;;;;;;;35.20;71.10;;;;;;1770193;80;20249;-91
2021/05/24 06:22:17;;;;;;;;;;;35.20;70.90;;;;;;1770700;80;20157;-91
2021/05/24 06:24:37;;;;;;;;;;;35.30;71.10;;;;;;1754848;80;20502;-89
2021/05/24 06:27:16;;;;;;;;;;;35.30;70.60;;;;;;1747678;80;20182;-91
2021/05/24 06:29:50;;;;;;;;;;;35.30;71.80;;;;;;1783413;80;20207;-85
2021/05/24 06:32:20;;;;;;;;;;;35.20;71.60;;;;;;1777110;80;20243;-85
2021/05/24 06:34:50;;;;;;;;;;;35.20;71.90;;;;;;1768248;80;20248;-86
2021/05/24 06:37:20;;;;;;;;;;;35.20;72.00;;;;;;1790016;79;20243;-85
2021/05/24 06:39:50;;;;;;;;;;;35.30;71.60;;;;;;1813960;78;20249;-86
2021/05/24 06:42:20;;;;;;;;;;;35.30;70.60;;;;;;1766724;80;20534;-86
2021/05/24 06:44:50;;;;;;;;;;;35.30;68.90;;;;;;1785951;80;20211;-86
2021/05/24 06:47:20;;;;;;;;;;;35.20;70.40;;;;;;1746203;81;20157;-87
2021/05/24 06:49:52;;;;;;;;;;;35.10;70.60;;;;;;1780769;78;20234;-86
2021/05/24 06:52:22;;;;;;;;;;;35.20;69.70;;;;;;1744147;80;20519;-85
2021/05/24 06:54:52;;;;;;;;;;;35.20;69.60;;;;;;1773902;79;20218;-85
2021/05/24 06:57:22;;;;;;;;;;;35.30;67.60;;;;;;1773975;80;20232;-87
2021/05/24 06:59:52;;;;;;;;;;;35.30;67.70;;;;;;1777954;80;20246;-86
2021/05/24 07:02:23;;;;;;;;;;;35.30;66.80;;;;;;1781185;80;20236;-87
2021/05/24 07:04:53;;;;;;;;;;;35.40;67.60;;;;;;1790416;78;20161;-86
2021/05/24 07:07:26;;;;;;;;;;;35.40;68.30;;;;;;1795779;80;20126;-86
2021/05/24 07:09:57;;;;;;;;;;;35.40;69.40;;;;;;1797475;78;20222;-86
2021/05/24 07:12:26;;;;;;;;;;;35.40;69.10;;;;;;1791146;78;20240;-86
2021/05/24 07:14:56;;;;;;;;;;;35.40;69.10;;;;;;1781128;78;20213;-86
2021/05/24 07:17:26;;;;;;;;;;;35.40;67.10;;;;;;1773691;78;20165;-86
2021/05/24 07:19:57;;;;;;;;;;;35.40;67.10;;;;;;1799596;79;20172;-87
2021/05/24 07:22:27;;;;;;;;;;;35.40;67.70;;;;;;1820627;79;20205;-87
2021/05/24 07:24:57;;;;;;;;;;;35.50;67.90;;;;;;1798483;80;20197;-87
2021/05/24 07:27:27;;;;;;;;;;;35.50;68.70;;;;;;1769991;80;20195;-88
2021/05/24 07:29:57;;;;;;;;;;;35.60;68.70;;;;;;1767931;81;20399;-87
2021/05/24 07:32:26;;;;;;;;;;;35.60;67.50;;;;;;1780624;80;20263;-87
2021/05/24 07:34:57;;;;;;;;;;;35.60;68.40;;;;;;1759868;80;20172;-87
2021/05/24 07:37:27;;;;;;;;;;;35.60;68.50;;;;;;1788105;79;20215;-87
2021/05/24 07:39:57;;;;;;;;;;;35.60;66.90;;;;;;1788545;79;20179;-87
2021/05/24 07:42:27;;;;;;;;;;;35.70;64.60;;;;;;1778672;79;20147;-87
2021/05/24 07:44:57;;;;;;;;;;;35.70;64.60;;;;;;1772908;80;20238;-85
2021/05/24 07:47:27;;;;;;;;;;;35.60;63.60;;;;;;1782162;79;20169;-85
2021/05/24 07:49:57;;;;;;;;;;;35.70;62.60;;;;;;1767982;80;20362;-86
2021/05/24 07:52:27;;;;;;;;;;;35.70;62.30;;;;;;1788192;79;20400;-86
2021/05/24 07:54:59;;;;;;;;;;;35.80;63.30;;;;;;1782931;79;20235;-87
2021/05/24 07:57:47;;;;;;;;;;;35.70;62.60;;;;;;1787020;79;20127;-85
2021/05/24 08:00:28;;;;;;;;;;;35.60;63.40;;;;;;1786846;79;20123;-87
2021/05/24 08:03:01;;;;;;;;;;;35.50;64.30;;;;;;1782211;79;20221;-86
2021/05/24 08:05:31;;;;;;;;;;;35.50;62.80;;;;;;1781522;79;20533;-87
2021/05/24 08:08:01;;;;;;;;;;;35.50;61.20;;;;;;1783426;79;20179;-86
2021/05/24 08:10:58;;;;;;;;;;;35.40;63.10;;;;;;1782669;79;20180;-86
2021/05/24 08:13:46;;;;;;;;;;;35.50;62.90;;;;;;1787275;79;20212;-88
2021/05/24 08:16:17;;;;;;;;;;;35.50;63.80;;;;;;1777750;79;20287;-88
2021/05/24 08:18:51;;;;;;;;;;;35.60;63.90;;;;;;1782427;79;20187;-85
2021/05/24 08:21:19;;;;;;;;;;;35.50;63.70;;;;;;1791761;79;20450;-86
2021/05/24 08:23:49;;;;;;;;;;;35.50;63.90;;;;;;1788963;79;20242;-86
2021/05/24 08:26:27;;;;;;;;;;;35.50;64.70;;;;;;1787559;79;20199;-88
2021/05/24 08:29:11;;;;;;;;;;;35.50;64.10;;;;;;1777501;79;20127;-87
2021/05/24 08:31:45;;;;;;;;;;;35.50;63.80;;;;;;1779973;79;20131;-87
2021/05/24 08:34:34;;;;;;;;;;;35.50;64.20;;;;;;1780351;80;20178;-86
2021/05/24 08:37:16;;;;;;;;;;;35.50;63.10;;;;;;1780334;80;20488;-86
2021/05/24 08:39:45;;;;;;;;;;;35.60;62.80;;;;;;1789278;80;20162;-86
2021/05/24 08:42:17;;;;;;;;;;;35.50;63.20;;;;;;1786911;79;20163;-84
2021/05/24 08:48:04;;;;;;;;;;;35.60;62.40;;;;;;1680218;84;20229;-85
2021/05/24 08:50:53;;;;;;;;;;;35.70;61.00;;;;;;1742678;81;20246;-85
2021/05/24 08:53:23;;;;;;;;;;;35.80;61.70;;;;;;1743715;81;20554;-85
2021/05/24 08:56:00;;;;;;;;;;;35.80;60.90;;;;;;1723235;81;20223;-86
2021/05/24 08:58:42;;;;;;;;;;;35.80;62.30;;;;;;1740737;81;20787;-87
2021/05/24 09:01:26;;;;;;;;;;;35.80;61.00;;;;;;1742460;81;20198;-86
2021/05/24 09:04:17;;;;;;;;;;;35.70;60.20;;;;;;1744250;80;20336;-87
2021/05/24 09:06:52;;;;;;;;;;;35.60;61.30;;;;;;1739491;81;20263;-87
2021/05/24 09:09:22;;;;;;;;;;;35.50;60.20;;;;;;1722722;82;20191;-86
2021/05/24 09:17:41;;;;;;;;;;;35.40;61.00;;;;;;1643556;87;20200;-86
2021/05/24 09:23:05;;;;;;;;;;;35.30;60.80;;;;;;1582183;88;20173;-86
2021/05/24 09:25:44;;;;;;;;;;;35.20;60.10;;;;;;1630810;86;20259;-85
2021/05/24 09:31:42;;;;;;;;;;;;;;;;;;;;;
2021/05/24 09:34:33;;;;;;;;;;;35.00;62.10;;;;;;1880608;73;20457;-86
2021/05/24 09:37:29;;;;;;;;;;;35.00;62.90;;;;;;1849156;73;20113;-86
2021/05/24 09:40:09;;;;;;;;;;;34.90;64.40;;;;;;1893583;73;20181;-87
2021/05/24 09:42:54;;;;;;;;;;;34.70;65.10;;;;;;1916545;73;20250;-87
2021/05/24 09:45:25;;;;;;;;;;;34.40;64.90;;;;;;1920259;73;20272;-87
2021/05/24 09:47:59;;;;;;;;;;;34.20;64.80;;;;;;1923589;73;20154;-88
2021/05/24 09:50:28;;;;;;;;;;;34.00;64.20;;;;;;1923036;73;20221;-87
2021/05/24 09:52:58;;;;;;;;;;;33.80;65.10;;;;;;1921696;73;20185;-86
2021/05/24 09:55:30;;;;;;;;;;;33.60;65.60;;;;;;1926162;73;20097;-86
2021/05/24 09:58:01;;;;;;;;;;;33.40;66.30;;;;;;1941321;73;20516;-86
2021/05/24 10:03:10;;;;;;;;;;;33.20;66.50;;;;;;1925763;73;20169;-86
2021/05/24 10:05:40;;;;;;;;;;;33.10;67.50;;;;;;1930237;73;20539;-85
2021/05/24 10:08:10;;;;;;;;;;;33.00;68.60;;;;;;1922710;73;20162;-86
2021/05/24 10:10:41;;;;;;;;;;;32.80;70.00;;;;;;1918750;73;20683;-85
2021/05/24 10:13:11;;;;;;;;;;;32.60;71.20;;;;;;1926437;73;20197;-85
2021/05/24 10:15:44;;;;;;;;;;;32.40;71.80;;;;;;1932276;73;20185;-85
2021/05/24 10:18:15;;;;;;;;;;;32.20;71.80;;;;;;1929169;71;20119;-85
2021/05/24 10:20:48;;;;;;;;;;;32.00;72.60;;;;;;1931921;73;20215;-87
2021/05/24 10:23:21;;;;;;;;;;;31.70;73.20;;;;;;1922378;73;20169;-84
2021/05/24 10:26:01;;;;;;;;;;;31.60;72.30;;;;;;1924500;73;20265;-86
2021/05/24 10:28:33;;;;;;;;;;;31.40;72.60;;;;;;1928111;73;20774;-85
2021/05/24 10:31:04;;;;;;;;;;;31.30;71.00;;;;;;1924661;73;20195;-83
2021/05/24 10:33:35;;;;;;;;;;;31.10;69.50;;;;;;1922179;73;20166;-85
2021/05/24 10:36:06;;;;;;;;;;;30.90;69.50;;;;;;1920302;73;20169;-85
2021/05/24 10:38:36;;;;;;;;;;;30.80;68.80;;;;;;1921924;73;20208;-86
2021/05/24 10:41:07;;;;;;;;;;;30.60;67.10;;;;;;1921162;73;20583;-84
2021/05/24 10:43:41;;;;;;;;;;;30.50;67.00;;;;;;1921280;74;20168;-84
2021/05/24 10:46:15;;;;;;;;;;;30.50;66.80;;;;;;1923464;74;20191;-85
2021/05/24 10:48:46;;;;;;;;;;;30.40;67.40;;;;;;1921175;74;20162;-85
2021/05/24 10:51:19;;;;;;;;;;;30.30;67.60;;;;;;1917412;74;20165;-84
2021/05/24 10:54:08;;;;;;;;;;;30.30;67.70;;;;;;1899325;74;20248;-86
2021/05/24 10:56:39;;;;;;;;;;;30.30;68.80;;;;;;1860412;76;20237;-84
2021/05/24 10:59:11;;;;;;;;;;;30.30;73.20;;;;;;1882910;75;20250;-84
2021/05/24 11:01:44;;;;;;;;;;;30.10;80.60;;;;;;1896110;75;20257;-85
2021/05/24 11:04:14;;;;;;;;;;;29.80;84.10;;;;;;1892112;74;20190;-84
2021/05/24 11:06:46;;;;;;;;;;;29.40;88.50;;;;;;1893688;75;20168;-82
2021/05/24 11:09:16;;;;;;;;;;;29.00;90.30;;;;;;1891680;75;20173;-84
2021/05/24 11:11:48;;;;;;;;;;;;;;;;;;1893837;75;20203;-85
2021/05/24 11:14:18;;;;;;;;;;;28.20;91.70;;;;;;1891191;75;20473;-84
2021/05/24 11:16:49;;;;;;;;;;;27.90;92.70;;;;;;1895684;75;20161;-85
2021/05/24 11:19:19;;;;;;;;;;;27.70;93.70;;;;;;1876667;76;20225;-84
2021/05/24 11:21:56;;;;;;;;;;;27.50;94.40;;;;;;1934645;73;20480;-85
2021/05/24 11:26:52;;;;;;;;;;;27.20;95.60;;;;;;1936027;73;20120;-83
2021/05/24 11:29:22;;;;;;;;;;;27.10;95.90;;;;;;1870487;76;20486;-85
2021/05/24 11:31:54;;;;;;;;;;;27.00;96.10;;;;;;1926636;73;20304;-82
2021/05/24 11:34:25;;;;;;;;;;;26.90;96.10;;;;;;1929963;73;20183;-83
2021/05/24 11:36:56;;;;;;;;;;;26.80;96.30;;;;;;1927966;73;20186;-85
2021/05/24 11:39:27;;;;;;;;;;;26.80;96.20;;;;;;1873767;76;20227;-85
2021/05/24 11:41:59;;;;;;;;;;;26.70;95.90;;;;;;1878024;75;20211;-85
2021/05/24 11:44:33;;;;;;;;;;;26.60;95.90;;;;;;1891153;75;20209;-86
2021/05/24 11:47:08;;;;;;;;;;;26.60;96.10;;;;;;1887058;75;20426;-87
2021/05/24 11:49:39;;;;;;;;;;;;;;;;;;1928224;73;20204;-86
2021/05/24 11:52:10;;;;;;;;;;;26.50;95.70;;;;;;1925633;73;20167;-86
2021/05/24 11:54:40;;;;;;;;;;;26.50;95.90;;;;;;1928781;73;20223;-85
2021/05/24 11:57:10;;;;;;;;;;;26.50;95.90;;;;;;1925366;73;20149;-85
2021/05/24 11:59:40;;;;;;;;;;;26.50;96.70;;;;;;1925787;73;20217;-85
2021/05/24 12:02:11;;;;;;;;;;;26.50;96.90;;;;;;1925341;73;20195;-86
2021/05/24 12:04:42;;;;;;;;;;;26.50;96.40;;;;;;1930119;73;20328;-85
2021/05/24 12:07:14;;;;;;;;;;;26.50;96.10;;;;;;1931326;73;20223;-85
2021/05/24 12:09:47;;;;;;;;;;;26.40;96.50;;;;;;1932048;73;20270;-84
2021/05/24 12:12:18;;;;;;;;;;;26.30;96.60;;;;;;1935403;73;20195;-84
2021/05/24 12:14:49;;;;;;;;;;;26.10;96.80;;;;;;1927571;73;20835;-84
2021/05/24 12:17:20;;;;;;;;;;;25.90;96.50;;;;;;1926248;73;20161;-84
2021/05/24 12:19:53;;;;;;;;;;;25.80;97.10;;;;;;1929615;73;20146;-85
2021/05/24 12:22:25;;;;;;;;;;;25.70;97.10;;;;;;1924898;73;20219;-84
2021/05/24 12:24:58;;;;;;;;;;;25.70;97.70;;;;;;1929021;73;20179;-84
2021/05/24 12:27:29;;;;;;;;;;;25.60;97.60;;;;;;1930914;73;20271;-84
2021/05/24 12:29:59;;;;;;;;;;;25.50;98.00;;;;;;1929182;73;20193;-85
2021/05/24 12:32:36;;;;;;;;;;;25.40;97.70;;;;;;1929212;73;20232;-84
2021/05/24 12:35:07;;;;;;;;;;;25.40;98.50;;;;;;1928588;73;20233;-85
2021/05/24 12:37:38;;;;;;;;;;;25.40;98.10;;;;;;1929516;73;20148;-85
2021/05/24 12:40:09;;;;;;;;;;;25.40;98.00;;;;;;1928249;73;20238;-85
2021/05/24 12:42:39;;;;;;;;;;;25.30;98.30;;;;;;1933221;73;20175;-85
2021/05/24 12:45:11;;;;;;;;;;;25.30;98.80;;;;;;1925780;73;20221;-85
2021/05/24 12:47:41;;;;;;;;;;;25.30;98.90;;;;;;1938488;73;20673;-85
2021/05/24 12:50:13;;;;;;;;;;;25.30;99.00;;;;;;1866853;75;20479;-85
2021/05/24 12:52:45;;;;;;;;;;;25.30;98.80;;;;;;1928793;73;20244;-87
2021/05/24 12:55:17;;;;;;;;;;;25.40;99.10;;;;;;1934586;73;20278;-85
2021/05/24 12:57:48;;;;;;;;;;;25.40;99.20;;;;;;1927119;73;20201;-85
2021/05/24 13:00:19;;;;;;;;;;;25.40;99.20;;;;;;1943979;73;20830;-85
2021/05/24 13:02:51;;;;;;;;;;;25.40;99.10;;;;;;1936078;73;20183;-85
2021/05/24 13:05:21;;;;;;;;;;;25.40;99.30;;;;;;1883853;75;20176;-84
2021/05/24 13:07:54;;;;;;;;;;;25.50;99.50;;;;;;1929858;73;20210;-85
2021/05/24 13:10:55;;;;;;;;;;;25.60;99.30;;;;;;1923397;73;20234;-85
2021/05/24 13:13:18;;;;;;;;;;;25.70;99.20;;;;;;1927463;73;20283;-86
2021/05/24 13:15:46;;;;;;;;;;;25.70;98.90;;;;;;1782793;76;20261;-84
2021/05/24 13:18:18;;;;;;;;;;;25.70;98.80;;;;;;1932491;73;20171;-89
2021/05/24 13:21:02;;;;;;;;;;;25.70;98.70;;;;;;1931927;73;20172;-89
2021/05/24 13:23:48;;;;;;;;;;;25.70;99.10;;;;;;1932527;73;20187;-87
2021/05/24 13:31:20;;;;;;;;;;;25.70;99.20;;;;;;1923265;73;20105;-89
2021/05/24 13:33:51;;;;;;;;;;;25.70;99.40;;;;;;1929960;74;20178;-89
2021/05/24 13:36:23;;;;;;;;;;;25.90;99.40;;;;;;1923721;74;20197;-88
2021/05/24 13:38:58;;;;;;;;;;;25.90;99.60;;;;;;1924796;74;20253;-89
2021/05/24 13:41:27;;;;;;;;;;;26.00;99.50;;;;;;1933548;74;20078;-88
2021/05/24 13:43:58;;;;;;;;;;;26.10;99.90;;;;;;1880355;75;20219;-90
2021/05/24 13:46:35;;;;;;;;;;;26.10;99.20;;;;;;1891550;74;20238;-88
2021/05/24 13:49:08;;;;;;;;;;;26.10;99.30;;;;;;1923636;74;20173;-90
2021/05/24 13:51:42;;;;;;;;;;;26.10;99.50;;;;;;1921951;73;20166;-90
2021/05/24 13:54:11;;;;;;;;;;;26.10;99.90;;;;;;1925628;74;20181;-89
2021/05/24 13:56:41;;;;;;;;;;;26.20;99.90;;;;;;1921267;74;20161;-90
2021/05/24 13:59:11;;;;;;;;;;;26.20;99.90;;;;;;1923618;74;20202;-89
2021/05/24 14:01:41;;;;;;;;;;;26.20;99.90;;;;;;1921880;74;20315;-88
2021/05/24 14:04:16;;;;;;;;;;;26.10;99.90;;;;;;1933966;74;20153;-89
2021/05/24 14:06:47;;;;;;;;;;;26.00;99.90;;;;;;1913733;74;20155;-90
2021/05/24 14:09:24;;;;;;;;;;;26.00;99.90;;;;;;1919830;74;20460;-90
2021/05/24 14:11:56;;;;;;;;;;;26.10;99.90;;;;;;1929487;73;20122;-89
2021/05/24 14:14:38;;;;;;;;;;;26.10;99.90;;;;;;1910968;71;20209;-90
2021/05/24 14:17:12;;;;;;;;;;;26.00;99.90;;;;;;1894084;74;20211;-89
2021/05/24 14:19:45;;;;;;;;;;;26.00;99.90;;;;;;1876276;75;20547;-88
2021/05/24 14:22:15;;;;;;;;;;;26.00;99.90;;;;;;1928912;74;20147;-89
2021/05/24 14:24:54;;;;;;;;;;;25.90;99.90;;;;;;1929703;74;20251;-91
2021/05/24 14:27:24;;;;;;;;;;;25.90;99.90;;;;;;1875545;75;20213;-91
2021/05/24 14:30:00;;;;;;;;;;;25.90;99.90;;;;;;1841981;76;20179;-89
2021/05/24 14:32:30;;;;;;;;;;;25.90;99.90;;;;;;1879866;75;20274;-89
2021/05/24 14:35:08;;;;;;;;;;;25.80;99.90;;;;;;1869085;75;20226;-90
2021/05/24 14:37:37;;;;;;;;;;;25.80;99.90;;;;;;1844293;76;20193;-91
2021/05/24 14:40:03;;;;;;;;;;;25.70;99.90;;;;;;1859461;76;20450;-89
2021/05/24 14:42:33;;;;;;;;;;;25.70;99.90;;;;;;1829785;77;20207;-88
2021/05/24 14:45:07;;;;;;;;;;;25.70;99.90;;;;;;1865593;76;20246;-88
2021/05/24 14:47:45;;;;;;;;;;;25.70;99.90;;;;;;1866666;75;20473;-89
2021/05/24 14:50:45;;;;;;;;;;;25.80;99.90;;;;;;1872818;75;20440;-88
2021/05/24 14:53:11;;;;;;;;;;;25.80;99.90;;;;;;1875174;76;20200;-90
2021/05/24 14:56:02;;;;;;;;;;;25.80;99.90;;;;;;1877366;76;20307;-88
2021/05/24 14:58:29;;;;;;;;;;;25.90;99.90;;;;;;1875368;75;20157;-89
2021/05/24 15:01:18;;;;;;;;;;;26.00;99.90;;;;;;1761271;78;20221;-91
2021/05/24 15:03:57;;;;;;;;;;;26.10;99.90;;;;;;1890518;74;20182;-91
2021/05/24 15:06:26;;;;;;;;;;;26.10;99.90;;;;;;1920607;74;20254;-91
2021/05/24 15:08:58;;;;;;;;;;;26.10;99.90;;;;;;1874369;75;20416;-91
2021/05/24 15:11:27;;;;;;;;;;;26.20;99.90;;;;;;1812871;78;20172;-89
2021/05/24 15:14:02;;;;;;;;;;;26.20;99.90;;;;;;1925735;73;20154;-92
2021/05/24 15:16:32;;;;;;;;;;;26.20;99.90;;;;;;1915992;73;20466;-90
2021/05/24 15:19:04;;;;;;;;;;;26.30;99.90;;;;;;1871991;75;20129;-90
2021/05/24 15:21:34;;;;;;;;;;;26.20;99.90;;;;;;1828229;77;20213;-88
2021/05/24 15:24:04;;;;;;;;;;;26.20;99.90;;;;;;1857253;77;20200;-89